Time;durP1;ratioP1;P1;durP2;ratioP2;P2;SDS_P1;SDS_P2;PMS_P1;PMS_P2;Temp;Humidity;BMP_temperature;BMP_pressure;BME280_temperature;BME280_humidity;BME280_pressure;Samples;Min_cycle;Max_cycle;Signal;HPM_P1;HPM_P2
2022/01/13 00:00:59;;;;;;;10.60;7.50;;;-2.00;99.90;;;;;;503087;236;27481;-69
2022/01/13 00:03:00;;;;;;;9.23;6.18;;;-1.90;99.90;;;;;;503056;236;27315;-69
2022/01/13 00:05:01;;;;;;;9.45;6.15;;;-1.80;99.90;;;;;;503030;236;27462;-69
2022/01/13 00:07:04;;;;;;;9.05;6.90;;;-1.70;99.90;;;;;;503078;236;27179;-69
2022/01/13 00:09:05;;;;;;;12.32;7.70;;;-1.70;99.90;;;;;;503072;236;27370;-69
2022/01/13 00:11:06;;;;;;;13.30;7.90;;;-1.40;99.90;;;;;;503076;236;27119;-69
2022/01/13 00:13:10;;;;;;;11.05;7.18;;;-1.20;99.90;;;;;;503073;236;28038;-69
2022/01/13 00:15:21;;;;;;;10.55;7.97;;;-1.00;99.90;;;;;;502937;236;27935;-69
2022/01/13 00:17:25;;;;;;;11.95;7.35;;;-0.90;99.90;;;;;;502017;236;27439;-69
2022/01/13 00:21:30;;;;;;;11.73;7.35;;;-0.90;99.90;;;;;;503049;236;27559;-69
2022/01/13 00:25:32;;;;;;;9.18;6.30;;;-0.90;99.90;;;;;;492840;240;28096;-69
2022/01/13 00:27:30;;;;;;;7.20;5.50;;;-0.90;99.90;;;;;;502501;236;27916;-69
2022/01/13 00:29:31;;;;;;;10.75;6.97;;;-1.00;99.90;;;;;;502977;236;27488;-70
2022/01/13 00:31:33;;;;;;;10.50;6.93;;;-1.00;99.90;;;;;;503023;236;27473;-69
2022/01/13 00:33:32;;;;;;;10.77;8.00;;;-0.90;99.90;;;;;;502925;236;27463;-69
2022/01/13 00:35:34;;;;;;;13.02;9.05;;;-0.90;99.90;;;;;;503054;236;27493;-69
2022/01/13 00:37:36;;;;;;;14.70;9.98;;;-0.80;99.90;;;;;;503036;236;27443;-69
2022/01/13 00:39:36;;;;;;;19.10;11.23;;;-0.70;99.90;;;;;;503016;236;27437;-69
2022/01/13 00:41:37;;;;;;;16.00;10.63;;;-0.60;99.90;;;;;;503084;236;27998;-69
2022/01/13 00:43:41;;;;;;;18.75;11.60;;;-0.60;99.90;;;;;;503074;236;27447;-69
2022/01/13 00:45:40;;;;;;;15.98;10.48;;;-0.60;99.90;;;;;;502886;236;27464;-69
2022/01/13 00:47:41;;;;;;;14.93;10.15;;;-0.60;99.90;;;;;;503076;236;27450;-69
2022/01/13 00:49:42;;;;;;;14.52;9.35;;;-0.60;99.90;;;;;;503090;236;27557;-69
2022/01/13 00:51:44;;;;;;;16.48;9.75;;;-0.60;99.90;;;;;;503099;236;27485;-69
2022/01/13 00:53:45;;;;;;;17.25;9.85;;;-0.60;99.90;;;;;;503073;236;27958;-69
2022/01/13 00:55:49;;;;;;;18.15;11.57;;;-0.60;99.90;;;;;;503045;236;29035;-69
2022/01/13 00:57:47;;;;;;;16.10;10.40;;;-0.60;99.90;;;;;;502773;236;27508;-69
2022/01/13 00:59:49;;;;;;;17.15;10.65;;;-0.60;99.90;;;;;;503074;236;27459;-69
2022/01/13 01:01:50;;;;;;;18.37;12.13;;;-0.60;99.90;;;;;;503046;236;27606;-69
2022/01/13 01:03:51;;;;;;;17.52;10.55;;;-0.60;99.90;;;;;;503023;236;27453;-69
2022/01/13 01:05:52;;;;;;;19.08;12.10;;;-0.60;99.90;;;;;;503004;236;27473;-69
2022/01/13 01:07:54;;;;;;;22.85;13.07;;;-0.70;99.90;;;;;;503083;236;28072;-69
2022/01/13 01:09:58;;;;;;;18.90;11.60;;;-0.60;99.90;;;;;;503058;236;27534;-69
2022/01/13 01:11:56;;;;;;;22.98;13.50;;;-0.70;99.90;;;;;;502849;236;27478;-69
2022/01/13 01:13:58;;;;;;;18.15;11.48;;;-0.80;99.90;;;;;;503049;236;27569;-69
2022/01/13 01:16:00;;;;;;;23.05;12.60;;;-0.80;99.90;;;;;;503054;236;27463;-69
2022/01/13 01:18:08;;;;;;;19.80;12.00;;;-0.80;99.90;;;;;;502972;236;27478;-69
2022/01/13 01:20:07;;;;;;;18.10;11.30;;;-0.80;99.90;;;;;;502407;236;27891;-70
2022/01/13 01:24:27;;;;;;;19.48;11.85;;;-0.80;99.90;;;;;;495834;236;27508;-69
2022/01/13 01:28:41;;;;;;;22.02;11.27;;;-0.70;99.90;;;;;;503068;236;27960;-69
2022/01/13 01:30:41;;;;;;;17.58;11.12;;;-0.70;99.90;;;;;;502123;236;27508;-69
2022/01/13 01:32:40;;;;;;;18.20;11.20;;;-0.60;99.90;;;;;;502703;236;27489;-69
2022/01/13 01:34:53;;;;;;;16.62;10.93;;;-0.60;99.90;;;;;;502954;236;27457;-69
2022/01/13 01:36:41;;;;;;;18.30;10.80;;;-0.60;99.90;;;;;;501856;236;27448;-69
2022/01/13 01:38:47;;;;;;;20.77;10.18;;;-0.60;99.90;;;;;;503055;236;28036;-69
2022/01/13 01:40:44;;;;;;;20.27;11.00;;;-0.60;99.90;;;;;;502730;236;29076;-69
2022/01/13 01:42:48;;;;;;;18.67;11.12;;;-0.60;99.90;;;;;;503049;236;27545;-68
2022/01/13 01:44:48;;;;;;;16.95;10.38;;;-0.60;99.90;;;;;;502795;236;27523;-69
2022/01/13 01:46:47;;;;;;;18.73;11.07;;;-0.50;99.90;;;;;;502962;236;27497;-69
2022/01/13 01:48:49;;;;;;;16.27;10.20;;;-0.60;99.90;;;;;;503062;236;27492;-69
2022/01/13 01:50:58;;;;;;;22.50;10.20;;;-0.60;99.90;;;;;;503047;236;27443;-69
2022/01/13 01:52:51;;;;;;;20.75;11.80;;;-0.50;99.90;;;;;;502405;236;28122;-71
2022/01/13 01:54:52;;;;;;;19.00;10.98;;;-0.50;99.90;;;;;;503109;236;27529;-69
2022/01/13 01:56:54;;;;;;;16.25;9.82;;;-0.60;99.90;;;;;;503087;236;27447;-69
2022/01/13 01:59:00;;;;;;;17.02;10.48;;;-0.50;99.90;;;;;;503075;236;27500;-69
2022/01/13 02:00:56;;;;;;;19.98;11.65;;;-0.40;99.90;;;;;;502652;236;27450;-69
2022/01/13 02:02:57;;;;;;;18.50;10.05;;;-0.50;99.90;;;;;;503047;236;27569;-69
2022/01/13 02:04:59;;;;;;;15.02;8.77;;;-0.60;99.90;;;;;;503082;236;28009;-69
2022/01/13 02:07:03;;;;;;;14.80;9.82;;;-0.50;99.90;;;;;;503036;236;28993;-69
2022/01/13 02:09:01;;;;;;;17.95;10.38;;;-0.50;99.90;;;;;;502810;236;27612;-69
2022/01/13 02:11:02;;;;;;;18.77;10.73;;;-0.50;99.90;;;;;;503079;236;27457;-69
2022/01/13 02:13:07;;;;;;;15.93;9.85;;;-0.50;99.90;;;;;;503097;236;27449;-69
2022/01/13 02:15:27;;;;;;;20.23;11.75;;;-0.50;99.90;;;;;;502788;236;27570;-69
2022/01/13 02:17:09;;;;;;;20.50;11.70;;;-0.50;99.90;;;;;;501267;236;27447;-69
2022/01/13 02:19:08;;;;;;;18.02;10.93;;;-0.50;99.90;;;;;;502842;236;27592;-69
2022/01/13 02:21:09;;;;;;;21.42;12.13;;;-0.50;99.90;;;;;;503088;236;27963;-69
2022/01/13 02:23:10;;;;;;;18.15;10.95;;;-0.50;99.90;;;;;;503084;236;27528;-69
2022/01/13 02:25:11;;;;;;;17.05;11.05;;;-0.50;99.90;;;;;;503067;236;27560;-69
2022/01/13 02:27:13;;;;;;;16.33;10.50;;;-0.50;99.90;;;;;;503097;236;27445;-69
2022/01/13 02:29:14;;;;;;;19.90;10.02;;;-0.40;99.90;;;;;;503042;236;28011;-69
2022/01/13 02:31:15;;;;;;;15.98;9.48;;;-0.40;99.90;;;;;;503091;236;29028;-69
2022/01/13 02:33:16;;;;;;;16.00;9.90;;;-0.40;99.90;;;;;;503061;236;27528;-69
2022/01/13 02:35:18;;;;;;;13.27;8.50;;;-0.40;99.90;;;;;;503052;236;27486;-69
2022/01/13 02:37:19;;;;;;;14.25;9.10;;;-0.40;99.90;;;;;;503073;236;27545;-69
2022/01/13 02:39:20;;;;;;;14.23;8.63;;;-0.30;99.90;;;;;;503086;236;27460;-69
2022/01/13 02:41:25;;;;;;;20.33;10.90;;;-0.30;99.90;;;;;;503076;236;27534;-69
2022/01/13 02:43:23;;;;;;;14.98;9.38;;;-0.40;99.90;;;;;;502861;236;27882;-69
2022/01/13 02:45:32;;;;;;;15.45;9.60;;;-0.40;99.90;;;;;;503068;236;27965;-69
2022/01/13 02:49:35;;;;;;;14.63;9.48;;;-0.40;99.90;;;;;;503070;236;27519;-69
2022/01/13 02:51:37;;;;;;;15.90;10.25;;;-0.30;99.90;;;;;;503080;236;27448;-70
2022/01/13 02:53:38;;;;;;;15.55;9.85;;;-0.30;99.90;;;;;;503061;236;27604;-69
2022/01/13 02:55:39;;;;;;;17.05;10.63;;;-0.30;99.90;;;;;;503071;236;27537;-69
2022/01/13 02:57:41;;;;;;;16.92;10.05;;;-0.30;99.90;;;;;;503070;236;27512;-69
2022/01/13 02:59:42;;;;;;;16.23;10.05;;;-0.30;99.90;;;;;;503080;236;27954;-69
2022/01/13 03:01:43;;;;;;;18.10;10.20;;;-0.30;99.90;;;;;;503065;236;27907;-69
2022/01/13 03:03:45;;;;;;;17.12;10.07;;;-0.30;99.90;;;;;;503050;236;27469;-69
2022/01/13 03:05:46;;;;;;;18.30;10.70;;;-0.30;99.90;;;;;;503059;236;27474;-69
2022/01/13 03:07:47;;;;;;;15.80;9.82;;;-0.30;99.90;;;;;;503091;236;27436;-69
2022/01/13 03:09:48;;;;;;;17.62;9.80;;;-0.30;99.90;;;;;;503079;236;27492;-69
2022/01/13 03:11:50;;;;;;;19.05;10.60;;;-0.30;99.90;;;;;;503056;236;27439;-69
2022/01/13 03:13:51;;;;;;;21.17;10.80;;;-0.30;99.90;;;;;;503010;236;28026;-69
2022/01/13 03:15:52;;;;;;;18.77;10.70;;;-0.30;99.90;;;;;;503064;236;29154;-69
2022/01/13 03:17:53;;;;;;;17.45;10.55;;;-0.40;99.90;;;;;;503076;236;27467;-69
2022/01/13 03:19:54;;;;;;;18.33;11.00;;;-0.40;99.90;;;;;;503072;236;27463;-70
2022/01/13 03:21:56;;;;;;;20.80;11.00;;;-0.40;99.90;;;;;;503054;236;27529;-69
2022/01/13 03:23:57;;;;;;;18.90;11.73;;;-0.50;99.90;;;;;;503028;236;27621;-69
2022/01/13 03:25:58;;;;;;;18.27;11.43;;;-0.40;99.90;;;;;;503095;236;27980;-69
2022/01/13 03:28:08;;;;;;;19.58;11.38;;;-0.40;99.90;;;;;;503077;236;27890;-69
2022/01/13 03:30:07;;;;;;;20.37;12.57;;;-0.50;99.90;;;;;;502874;236;29051;-69
2022/01/13 03:32:08;;;;;;;22.33;12.23;;;-0.40;99.90;;;;;;503045;236;27500;-69
2022/01/13 03:34:09;;;;;;;20.85;11.65;;;-0.40;99.90;;;;;;503041;236;27512;-69
2022/01/13 03:36:10;;;;;;;19.90;11.93;;;-0.40;99.90;;;;;;503098;236;27493;-69
2022/01/13 03:38:12;;;;;;;17.75;10.10;;;-0.40;99.90;;;;;;503094;236;27465;-69
2022/01/13 03:40:13;;;;;;;19.00;11.07;;;-0.30;99.90;;;;;;503086;236;27911;-69
2022/01/13 03:42:14;;;;;;;17.17;10.65;;;-0.40;99.90;;;;;;503076;236;27917;-69
2022/01/13 03:44:27;;;;;;;16.90;11.10;;;-0.40;99.90;;;;;;503096;236;27433;-69
2022/01/13 03:46:20;;;;;;;17.35;10.65;;;-0.40;99.90;;;;;;502343;236;27471;-69
2022/01/13 03:48:21;;;;;;;20.85;12.55;;;-0.50;99.90;;;;;;503075;236;28019;-69
2022/01/13 03:50:22;;;;;;;20.55;11.35;;;-0.50;99.90;;;;;;503074;236;27887;-69
2022/01/13 03:52:23;;;;;;;18.62;11.18;;;-0.40;99.90;;;;;;503053;236;27467;-69
2022/01/13 03:54:25;;;;;;;20.05;11.18;;;-0.40;99.90;;;;;;503105;236;27478;-70
2022/01/13 03:56:26;;;;;;;23.85;11.68;;;-0.40;99.90;;;;;;503075;236;27441;-69
2022/01/13 03:58:27;;;;;;;20.35;10.65;;;-0.50;99.90;;;;;;503087;236;27487;-69
2022/01/13 04:00:33;;;;;;;18.80;10.98;;;-0.40;99.90;;;;;;503070;236;28025;-69
2022/01/13 04:02:30;;;;;;;19.10;11.43;;;-0.50;99.90;;;;;;502646;236;27928;-70
2022/01/13 04:04:31;;;;;;;20.52;11.57;;;-0.50;99.90;;;;;;503086;236;27461;-69
2022/01/13 04:06:32;;;;;;;19.35;10.55;;;-0.40;99.90;;;;;;503060;236;27455;-69
2022/01/13 04:08:34;;;;;;;19.62;11.65;;;-0.40;99.90;;;;;;503055;236;27541;-70
2022/01/13 04:10:35;;;;;;;21.02;11.68;;;-0.40;99.90;;;;;;503054;236;27750;-69
2022/01/13 04:12:36;;;;;;;20.52;12.07;;;-0.40;99.90;;;;;;503087;236;27558;-69
2022/01/13 04:14:45;;;;;;;20.17;11.93;;;-0.50;99.90;;;;;;503085;236;28024;-69
2022/01/13 04:16:39;;;;;;;21.17;11.23;;;-0.50;99.90;;;;;;502371;236;27575;-69
2022/01/13 04:18:40;;;;;;;18.52;11.00;;;-0.50;99.90;;;;;;503038;236;27514;-69
2022/01/13 04:20:41;;;;;;;17.23;10.85;;;-0.50;99.90;;;;;;503092;236;27625;-69
2022/01/13 04:22:42;;;;;;;20.12;11.73;;;-0.50;99.90;;;;;;503046;236;27442;-69
2022/01/13 04:24:45;;;;;;;20.48;10.45;;;-0.40;99.90;;;;;;503064;236;27472;-69
2022/01/13 04:26:45;;;;;;;18.40;11.12;;;-0.40;99.90;;;;;;502957;236;27906;-69
2022/01/13 04:28:49;;;;;;;21.98;11.75;;;-0.50;99.90;;;;;;503051;236;29088;-69
2022/01/13 04:30:49;;;;;;;19.65;11.23;;;-0.50;99.90;;;;;;502875;236;27512;-69
2022/01/13 04:32:49;;;;;;;16.08;10.27;;;-0.40;99.90;;;;;;502960;236;27498;-69
2022/01/13 04:34:50;;;;;;;21.75;11.85;;;-0.40;99.90;;;;;;503030;236;27582;-69
2022/01/13 04:36:51;;;;;;;19.50;11.20;;;-0.40;99.90;;;;;;503045;236;27504;-69
2022/01/13 04:38:52;;;;;;;23.00;11.93;;;-0.40;99.90;;;;;;503086;236;27867;-69
2022/01/13 04:40:59;;;;;;;19.45;11.20;;;-0.50;99.90;;;;;;503061;236;29038;-69
2022/01/13 04:42:58;;;;;;;16.60;10.10;;;-0.50;99.90;;;;;;502823;236;27561;-69
2022/01/13 04:44:59;;;;;;;17.70;10.32;;;-0.40;99.90;;;;;;503026;236;27497;-69
2022/01/13 04:47:00;;;;;;;17.85;10.57;;;-0.50;99.90;;;;;;503000;236;27462;-69
2022/01/13 04:49:02;;;;;;;18.33;10.82;;;-0.50;99.90;;;;;;503080;236;27483;-69
2022/01/13 04:51:03;;;;;;;18.30;11.23;;;-0.60;99.90;;;;;;503070;236;27882;-69
2022/01/13 04:53:04;;;;;;;17.42;10.10;;;-0.60;99.90;;;;;;503053;236;29110;-69
2022/01/13 04:55:10;;;;;;;17.55;10.23;;;-0.50;99.90;;;;;;503029;236;27433;-69
2022/01/13 04:57:15;;;;;;;15.55;10.15;;;-0.50;99.90;;;;;;502705;236;27525;-69
2022/01/13 04:59:08;;;;;;;18.48;10.35;;;-0.50;99.90;;;;;;502430;236;27551;-69
2022/01/13 05:01:09;;;;;;;17.95;10.30;;;-0.60;99.90;;;;;;503040;236;27481;-69
2022/01/13 05:03:11;;;;;;;16.02;9.70;;;-0.50;99.90;;;;;;503012;236;27907;-69
2022/01/13 05:05:12;;;;;;;19.33;10.90;;;-0.50;99.90;;;;;;503008;236;28055;-69
2022/01/13 05:07:13;;;;;;;17.58;10.98;;;-0.50;99.90;;;;;;502881;236;27513;-69
2022/01/13 05:09:14;;;;;;;17.20;10.68;;;-0.50;99.90;;;;;;502861;236;27602;-69
2022/01/13 05:11:16;;;;;;;21.17;10.57;;;-0.50;99.90;;;;;;502824;236;27436;-69
2022/01/13 05:13:17;;;;;;;16.75;9.88;;;-0.40;99.90;;;;;;502818;236;27602;-69
2022/01/13 05:15:22;;;;;;;18.33;10.15;;;-0.40;99.90;;;;;;503013;236;27491;-69
2022/01/13 05:17:34;;;;;;;18.33;9.32;;;-0.40;99.90;;;;;;502743;236;28032;-69
2022/01/13 05:19:29;;;;;;;15.00;9.45;;;-0.40;99.90;;;;;;501748;236;28039;-69
2022/01/13 05:23:29;;;;;;;15.75;9.80;;;-0.50;99.90;;;;;;497196;236;29061;-69
2022/01/13 05:25:30;;;;;;;18.30;10.48;;;-0.50;99.90;;;;;;503036;236;27572;-69
2022/01/13 05:27:32;;;;;;;13.05;8.63;;;-0.40;99.90;;;;;;503050;236;27450;-69
2022/01/13 05:29:33;;;;;;;19.85;10.30;;;-0.30;99.90;;;;;;503014;236;27544;-69
2022/01/13 05:31:34;;;;;;;16.92;9.52;;;-0.30;99.90;;;;;;503031;236;27568;-69
2022/01/13 05:33:35;;;;;;;18.35;10.45;;;-0.30;99.90;;;;;;503045;236;27434;-69
2022/01/13 05:35:37;;;;;;;22.00;10.77;;;-0.40;99.90;;;;;;503065;236;28038;-69
2022/01/13 05:37:38;;;;;;;19.58;11.27;;;-0.50;99.90;;;;;;503074;236;27557;-69
2022/01/13 05:39:39;;;;;;;19.25;11.23;;;-0.50;99.90;;;;;;503038;236;27500;-69
2022/01/13 05:41:40;;;;;;;18.10;10.65;;;-0.60;99.90;;;;;;503047;236;27497;-69
2022/01/13 05:43:42;;;;;;;18.15;10.32;;;-0.50;99.90;;;;;;503061;236;27467;-69
2022/01/13 05:45:43;;;;;;;18.73;11.27;;;-0.50;99.90;;;;;;503053;236;27517;-69
2022/01/13 05:47:44;;;;;;;16.52;10.05;;;-0.50;99.90;;;;;;503057;236;27901;-69
2022/01/13 05:49:45;;;;;;;20.67;10.77;;;-0.40;99.90;;;;;;503080;236;27949;-69
2022/01/13 05:51:47;;;;;;;16.25;9.75;;;-0.40;99.90;;;;;;503084;236;27614;-69
2022/01/13 05:53:48;;;;;;;19.00;10.40;;;-0.40;99.90;;;;;;503024;236;27457;-69
2022/01/13 05:55:49;;;;;;;17.35;9.95;;;-0.40;99.90;;;;;;503067;236;27483;-70
2022/01/13 05:57:50;;;;;;;19.20;11.07;;;-0.40;99.90;;;;;;503044;236;27462;-69
2022/01/13 05:59:52;;;;;;;21.20;10.93;;;-0.40;99.90;;;;;;503027;236;27483;-69
2022/01/13 06:01:53;;;;;;;19.27;11.10;;;-0.40;99.90;;;;;;503083;236;27969;-69
2022/01/13 06:03:54;;;;;;;16.02;9.07;;;-0.30;99.90;;;;;;503045;236;27435;-69
2022/01/13 06:05:55;;;;;;;16.12;9.80;;;-0.30;99.90;;;;;;503050;236;27509;-69
2022/01/13 06:07:57;;;;;;;16.05;8.60;;;-0.30;99.90;;;;;;503035;236;27463;-70
2022/01/13 06:09:58;;;;;;;18.65;10.80;;;-0.30;99.90;;;;;;503083;236;27453;-69
2022/01/13 06:12:02;;;;;;;20.90;11.20;;;-0.40;99.90;;;;;;503092;236;27602;-69
2022/01/13 06:14:00;;;;;;;21.92;11.43;;;-0.50;99.90;;;;;;502855;236;27990;-69
2022/01/13 06:16:02;;;;;;;16.83;9.75;;;-0.40;99.90;;;;;;503031;236;29039;-69
2022/01/13 06:18:03;;;;;;;17.52;9.93;;;-0.30;99.90;;;;;;503059;236;27431;-69
2022/01/13 06:20:04;;;;;;;15.25;8.57;;;-0.30;99.90;;;;;;503067;236;27447;-69
2022/01/13 06:22:07;;;;;;;17.95;10.45;;;-0.20;99.90;;;;;;503054;236;27458;-69
2022/01/13 06:24:07;;;;;;;16.65;9.32;;;-0.30;99.90;;;;;;503029;236;27434;-69
2022/01/13 06:26:08;;;;;;;16.10;8.80;;;-0.30;99.90;;;;;;503048;236;27601;-70
2022/01/13 06:28:09;;;;;;;15.80;8.60;;;-0.30;99.90;;;;;;503031;236;27903;-70
2022/01/13 06:30:11;;;;;;;15.15;9.10;;;-0.30;99.90;;;;;;503037;236;27903;-69
2022/01/13 06:32:12;;;;;;;13.93;8.23;;;-0.30;99.90;;;;;;503073;236;29071;-69
2022/01/13 06:34:13;;;;;;;15.70;8.73;;;-0.30;99.90;;;;;;503064;236;27436;-69
2022/01/13 06:36:14;;;;;;;15.18;8.90;;;-0.30;99.90;;;;;;503027;236;27501;-69
2022/01/13 06:38:16;;;;;;;16.80;8.60;;;-0.40;99.90;;;;;;503073;236;27465;-69
2022/01/13 06:40:17;;;;;;;14.30;8.57;;;-0.40;99.90;;;;;;503102;236;27455;-69
2022/01/13 06:42:18;;;;;;;13.30;7.87;;;-0.30;99.90;;;;;;503066;236;27512;-70
2022/01/13 06:44:19;;;;;;;14.20;8.32;;;-0.30;99.90;;;;;;503045;236;27923;-69
2022/01/13 06:46:21;;;;;;;16.40;9.07;;;-0.30;99.90;;;;;;503044;236;27956;-70
2022/01/13 06:48:22;;;;;;;19.02;9.88;;;-0.40;99.90;;;;;;503076;236;27512;-69
2022/01/13 06:50:23;;;;;;;17.30;9.32;;;-0.40;99.90;;;;;;503066;236;27463;-69
2022/01/13 06:52:24;;;;;;;14.90;8.25;;;-0.40;99.90;;;;;;503067;236;27473;-69
2022/01/13 06:54:26;;;;;;;17.20;9.20;;;-0.40;99.90;;;;;;503039;236;27537;-69
2022/01/13 06:56:27;;;;;;;17.23;8.50;;;-0.40;99.90;;;;;;503065;236;27468;-69
2022/01/13 06:58:28;;;;;;;15.25;8.80;;;-0.40;99.90;;;;;;503063;236;27482;-69
2022/01/13 07:00:29;;;;;;;15.02;8.98;;;-0.40;99.90;;;;;;503063;236;27919;-69
2022/01/13 07:02:32;;;;;;;14.00;8.15;;;-0.40;99.90;;;;;;503075;236;28069;-69
2022/01/13 07:04:33;;;;;;;14.93;8.52;;;-0.40;99.90;;;;;;502996;236;27451;-69
2022/01/13 07:06:33;;;;;;;19.12;9.82;;;-0.40;99.90;;;;;;503016;236;27442;-69
2022/01/13 07:08:35;;;;;;;15.77;8.50;;;-0.50;99.90;;;;;;503081;236;27490;-69
2022/01/13 07:10:36;;;;;;;23.62;11.38;;;-0.50;99.90;;;;;;503060;236;27463;-69
2022/01/13 07:12:37;;;;;;;21.08;12.65;;;-0.60;99.90;;;;;;503032;236;27464;-69
2022/01/13 07:14:38;;;;;;;13.95;8.90;;;-0.70;99.90;;;;;;503068;236;28838;-69
2022/01/13 07:16:39;;;;;;;16.62;9.00;;;-0.70;99.90;;;;;;503079;236;27981;-69
2022/01/13 07:18:41;;;;;;;16.40;9.10;;;-0.60;99.90;;;;;;503089;236;27483;-69
2022/01/13 07:20:43;;;;;;;15.10;9.20;;;-0.60;99.90;;;;;;503062;236;27514;-69
2022/01/13 07:22:43;;;;;;;15.75;8.82;;;-0.60;99.90;;;;;;503019;236;27477;-69
2022/01/13 07:24:45;;;;;;;16.50;9.07;;;-0.60;99.90;;;;;;503079;236;27482;-69
2022/01/13 07:26:46;;;;;;;16.75;9.90;;;-0.70;99.90;;;;;;503072;236;27560;-69
2022/01/13 07:28:47;;;;;;;18.30;10.40;;;-0.80;99.90;;;;;;503030;236;27560;-69
2022/01/13 07:30:48;;;;;;;15.75;8.88;;;-0.80;99.90;;;;;;503066;236;27919;-69
2022/01/13 07:32:50;;;;;;;16.33;9.73;;;-0.80;99.90;;;;;;503069;236;27951;-69
2022/01/13 07:34:51;;;;;;;16.87;9.40;;;-0.70;99.90;;;;;;503110;236;27473;-69
2022/01/13 07:36:52;;;;;;;13.65;9.20;;;-0.70;99.90;;;;;;503069;236;27448;-69
2022/01/13 07:38:53;;;;;;;15.63;9.05;;;-0.70;99.90;;;;;;503062;236;27465;-69
2022/01/13 07:40:55;;;;;;;16.08;9.55;;;-0.70;99.90;;;;;;503050;236;27366;-69
2022/01/13 07:42:56;;;;;;;20.00;10.63;;;-0.80;99.90;;;;;;503040;236;27434;-69
2022/01/13 07:44:57;;;;;;;17.45;9.35;;;-0.80;99.90;;;;;;503087;236;27941;-69
2022/01/13 07:47:00;;;;;;;21.15;11.68;;;-0.80;99.90;;;;;;503066;236;27910;-69
2022/01/13 07:49:00;;;;;;;16.60;9.70;;;-0.70;99.90;;;;;;502946;236;27476;-70
2022/01/13 07:51:01;;;;;;;20.48;10.38;;;-0.70;99.90;;;;;;503062;236;27470;-69
2022/01/13 07:53:02;;;;;;;16.95;10.10;;;-0.60;99.90;;;;;;503069;236;27443;-69
2022/01/13 07:55:03;;;;;;;19.90;10.73;;;-0.60;99.90;;;;;;503081;236;27473;-69
2022/01/13 07:57:05;;;;;;;17.12;10.50;;;-0.60;99.90;;;;;;503032;236;27446;-69
2022/01/13 07:59:06;;;;;;;15.18;9.57;;;-0.50;99.90;;;;;;503044;236;27934;-69
2022/01/13 08:01:07;;;;;;;18.58;10.32;;;-0.50;99.90;;;;;;503081;236;28050;-69
2022/01/13 08:03:08;;;;;;;14.10;9.38;;;-0.40;99.90;;;;;;503073;236;27547;-69
2022/01/13 08:05:10;;;;;;;16.12;9.02;;;-0.50;99.90;;;;;;503076;236;27495;-69
2022/01/13 08:07:11;;;;;;;16.40;9.20;;;-0.40;99.90;;;;;;503044;236;27442;-69
2022/01/13 08:09:12;;;;;;;17.33;9.00;;;-0.40;99.90;;;;;;503025;236;27623;-69
2022/01/13 08:11:16;;;;;;;15.98;9.50;;;-0.30;99.90;;;;;;503069;236;27589;-70
2022/01/13 08:13:16;;;;;;;18.10;10.38;;;-0.30;99.90;;;;;;502983;236;27486;-70
2022/01/13 08:15:17;;;;;;;23.20;11.60;;;-0.50;99.90;;;;;;503064;236;27862;-69
2022/01/13 08:19:45;;;;;;;19.62;11.00;;;-0.60;99.90;;;;;;503082;236;28084;-69
2022/01/13 08:21:39;;;;;;;20.15;10.85;;;-0.60;99.90;;;;;;503058;236;29104;-69
2022/01/13 08:23:40;;;;;;;15.73;10.25;;;-0.60;99.90;;;;;;503042;236;27561;-69
2022/01/13 08:25:42;;;;;;;13.75;8.85;;;-0.50;99.90;;;;;;503090;236;27502;-69
2022/01/13 08:27:43;;;;;;;15.88;9.27;;;-0.40;99.90;;;;;;503065;236;27457;-69
2022/01/13 08:29:44;;;;;;;16.05;9.88;;;-0.40;99.90;;;;;;503073;236;27577;-70
2022/01/13 08:31:45;;;;;;;16.02;9.50;;;-0.40;99.90;;;;;;503080;236;27465;-69
2022/01/13 08:33:47;;;;;;;17.85;10.80;;;-0.30;99.90;;;;;;503042;236;27941;-69
2022/01/13 08:35:48;;;;;;;18.05;10.48;;;-0.30;99.90;;;;;;503108;236;27950;-69
2022/01/13 08:37:49;;;;;;;18.37;10.75;;;-0.30;99.90;;;;;;503091;236;27453;-69
2022/01/13 08:39:50;;;;;;;17.33;10.45;;;-0.30;99.90;;;;;;503070;236;27482;-69
2022/01/13 08:41:52;;;;;;;15.65;9.98;;;-0.30;99.90;;;;;;503032;236;27434;-69
2022/01/13 08:43:55;;;;;;;14.75;9.43;;;-0.20;99.90;;;;;;502867;236;27437;-67
2022/01/13 08:45:54;;;;;;;14.43;9.40;;;-0.20;99.90;;;;;;502940;236;27480;-67
2022/01/13 08:47:55;;;;;;;15.02;8.95;;;-0.10;99.90;;;;;;503049;236;27907;-67
2022/01/13 08:49:57;;;;;;;18.48;10.55;;;-0.10;99.90;;;;;;503054;236;29044;-69
2022/01/13 08:51:58;;;;;;;15.45;9.00;;;-0.10;99.90;;;;;;503066;236;27473;-69
2022/01/13 08:53:59;;;;;;;15.90;9.13;;;0.00;99.90;;;;;;503070;236;27525;-69
2022/01/13 08:56:01;;;;;;;14.68;8.43;;;0.00;99.90;;;;;;503062;236;27576;-70
2022/01/13 08:58:02;;;;;;;14.20;9.55;;;0.00;99.90;;;;;;503048;236;27552;-69
2022/01/13 09:00:03;;;;;;;15.55;9.20;;;0.00;99.90;;;;;;503034;236;27521;-69
2022/01/13 09:02:04;;;;;;;12.52;8.45;;;0.00;99.90;;;;;;503056;236;27962;-69
2022/01/13 09:04:05;;;;;;;14.13;9.10;;;0.00;99.90;;;;;;503078;236;27461;-69
2022/01/13 09:06:07;;;;;;;16.65;9.45;;;0.00;99.90;;;;;;503057;236;27941;-69
2022/01/13 09:08:09;;;;;;;16.95;9.90;;;0.00;99.90;;;;;;503050;236;27908;-75
2022/01/13 09:10:09;;;;;;;13.13;8.70;;;-0.10;99.90;;;;;;502965;236;27937;-69
2022/01/13 09:12:11;;;;;;;15.15;8.80;;;0.00;99.90;;;;;;503086;236;27478;-70
2022/01/13 09:14:13;;;;;;;12.57;7.95;;;0.00;99.90;;;;;;503061;236;27456;-69
2022/01/13 09:16:17;;;;;;;13.18;8.32;;;0.00;99.90;;;;;;503040;236;27506;-69
2022/01/13 09:18:29;;;;;;;13.32;8.50;;;0.10;99.90;;;;;;502936;236;27493;-69
2022/01/13 09:20:18;;;;;;;13.68;8.57;;;0.10;99.90;;;;;;501987;236;27440;-70
2022/01/13 09:22:20;;;;;;;11.30;8.10;;;0.10;99.90;;;;;;503030;236;27567;-69
2022/01/13 09:24:21;;;;;;;13.23;8.35;;;0.20;99.90;;;;;;503036;236;27953;-69
2022/01/13 09:26:22;;;;;;;11.60;8.07;;;0.20;99.90;;;;;;503050;236;27892;-69
2022/01/13 09:28:23;;;;;;;13.30;8.70;;;0.30;99.90;;;;;;503024;236;28014;-69
2022/01/13 09:30:25;;;;;;;12.63;8.45;;;0.30;99.90;;;;;;503041;236;27552;-69
2022/01/13 09:32:26;;;;;;;11.12;7.43;;;0.40;99.90;;;;;;503069;236;27556;-69
2022/01/13 09:34:27;;;;;;;12.32;7.60;;;0.40;99.90;;;;;;503061;236;27462;-69
2022/01/13 09:36:28;;;;;;;12.05;7.65;;;0.50;99.90;;;;;;503049;236;27518;-70
2022/01/13 09:38:30;;;;;;;11.48;7.70;;;0.60;99.90;;;;;;503046;236;27561;-69
2022/01/13 09:40:31;;;;;;;12.82;7.65;;;0.60;99.90;;;;;;503015;236;27845;-69
2022/01/13 09:42:32;;;;;;;10.88;7.80;;;0.60;99.90;;;;;;503077;236;27501;-69
2022/01/13 09:44:33;;;;;;;12.27;7.80;;;0.50;99.90;;;;;;503054;236;28011;-69
2022/01/13 09:46:35;;;;;;;11.73;7.05;;;0.50;99.90;;;;;;503039;236;27889;-69
2022/01/13 09:48:36;;;;;;;11.70;8.00;;;0.50;99.90;;;;;;503029;236;27971;-70
2022/01/13 09:50:37;;;;;;;12.15;7.85;;;0.50;99.90;;;;;;503053;236;27605;-69
2022/01/13 09:52:38;;;;;;;14.05;8.90;;;0.50;99.90;;;;;;503058;236;27442;-69
2022/01/13 09:54:40;;;;;;;11.52;7.72;;;0.60;99.90;;;;;;503050;236;27582;-69
2022/01/13 09:56:41;;;;;;;10.70;8.20;;;0.60;99.90;;;;;;503018;236;27492;-69
2022/01/13 09:58:44;;;;;;;13.65;8.73;;;0.60;99.90;;;;;;503056;236;27632;-69
2022/01/13 10:00:43;;;;;;;12.32;8.55;;;0.60;99.90;;;;;;502952;236;27485;-70
2022/01/13 10:02:45;;;;;;;12.80;8.27;;;0.70;99.90;;;;;;503047;236;27463;-69
2022/01/13 10:04:46;;;;;;;13.18;8.32;;;0.60;99.90;;;;;;503047;236;27937;-69
2022/01/13 10:06:48;;;;;;;13.30;8.45;;;0.50;99.90;;;;;;503045;236;27987;-70
2022/01/13 10:08:49;;;;;;;12.27;8.00;;;0.50;99.90;;;;;;502982;236;27975;-69
2022/01/13 10:10:50;;;;;;;14.27;8.05;;;0.50;99.90;;;;;;503077;236;27473;-70
2022/01/13 10:12:51;;;;;;;13.15;8.68;;;0.60;99.90;;;;;;503077;236;27494;-69
2022/01/13 10:16:54;;;;;;;11.95;7.90;;;0.70;99.90;;;;;;503066;236;27448;-69
2022/01/13 10:18:55;;;;;;;11.35;7.50;;;0.70;99.90;;;;;;503057;236;27478;-69
2022/01/13 10:20:56;;;;;;;13.65;8.18;;;0.70;99.90;;;;;;503105;236;27560;-70
2022/01/13 10:22:57;;;;;;;11.43;8.05;;;0.70;99.90;;;;;;503023;236;27430;-69
2022/01/13 10:24:59;;;;;;;11.40;7.53;;;0.70;99.90;;;;;;503050;236;28587;-70
2022/01/13 10:27:00;;;;;;;14.10;8.77;;;0.70;99.90;;;;;;503050;236;27973;-69
2022/01/13 10:29:01;;;;;;;11.12;7.62;;;0.70;99.90;;;;;;503073;236;27945;-69
2022/01/13 10:31:02;;;;;;;12.57;8.50;;;0.70;99.90;;;;;;503086;236;27466;-70
2022/01/13 10:33:04;;;;;;;12.02;7.82;;;0.70;99.90;;;;;;503058;236;27529;-70
2022/01/13 10:35:05;;;;;;;11.05;7.57;;;0.80;99.90;;;;;;503078;236;27504;-69
2022/01/13 10:37:06;;;;;;;10.18;7.35;;;0.80;99.90;;;;;;503048;236;27474;-69